createdAt,value
2022-09-28T00:02:26.783Z,59.60
2022-09-28T00:05:19.424Z,59.54
2022-09-28T00:08:11.560Z,59.61
2022-09-28T00:11:05.016Z,57.72
2022-09-28T00:14:03.701Z,56.78
2022-09-28T00:16:56.257Z,58.79
2022-09-28T00:19:48.541Z,63.87
2022-09-28T00:22:46.475Z,66.85
2022-09-28T00:25:38.863Z,65.48
2022-09-28T00:28:11.816Z,64.16
2022-09-28T00:31:04.190Z,63.20
2022-09-28T00:33:57.969Z,62.77
2022-09-28T00:36:51.031Z,62.54
2022-09-28T00:39:44.262Z,62.30
2022-09-28T00:42:29.390Z,61.75
2022-09-28T00:45:22.874Z,61.42
2022-09-28T00:48:15.143Z,61.29
2022-09-28T00:51:13.844Z,61.13
2022-09-28T00:54:08.767Z,61.00
2022-09-28T00:57:02.337Z,60.84
2022-09-28T00:59:47.893Z,60.51
2022-09-28T01:02:40.802Z,60.34
2022-09-28T01:05:33.989Z,60.32
2022-09-28T01:08:28.535Z,60.40
2022-09-28T01:11:22.081Z,60.47
2022-09-28T01:14:18.169Z,60.22
2022-09-28T01:17:09.698Z,60.27
2022-09-28T01:20:28.766Z,60.39
2022-09-28T01:23:47.169Z,60.26
2022-09-28T01:27:12.882Z,60.05
2022-09-28T01:30:08.989Z,59.86
2022-09-28T01:33:08.844Z,59.52
2022-09-28T01:35:54.100Z,57.59
2022-09-28T01:38:49.234Z,56.83
2022-09-28T01:41:44.951Z,58.48
2022-09-28T01:44:46.237Z,63.72
2022-09-28T01:47:41.770Z,66.10
2022-09-28T01:50:39.967Z,64.93
2022-09-28T01:53:40.498Z,63.98
2022-09-28T01:56:40.940Z,63.55
2022-09-28T01:59:38.110Z,63.16
2022-09-28T02:02:39.368Z,62.50
2022-09-28T02:05:38.217Z,62.21
2022-09-28T02:08:34.552Z,61.65
2022-09-28T02:11:26.758Z,61.28
2022-09-28T02:14:21.808Z,60.83
2022-09-28T02:17:16.220Z,60.46
2022-09-28T02:20:10.033Z,60.46
2022-09-28T02:23:03.157Z,60.62
2022-09-28T02:25:49.900Z,60.73
2022-09-28T02:28:33.090Z,60.59
2022-09-28T02:31:25.233Z,60.41
2022-09-28T02:34:17.434Z,59.96
2022-09-28T02:37:09.830Z,59.66
2022-09-28T02:40:02.051Z,57.66
2022-09-28T02:43:03.210Z,56.96
2022-09-28T02:46:03.241Z,58.33
2022-09-28T02:49:21.346Z,59.88
2022-09-28T02:52:43.071Z,66.15
2022-09-28T02:55:50.223Z,66.02
2022-09-28T02:58:51.981Z,64.36
2022-09-28T03:01:54.124Z,63.34
2022-09-28T03:04:52.667Z,62.27
2022-09-28T03:07:53.358Z,61.50
2022-09-28T03:10:50.108Z,60.97
2022-09-28T03:13:42.985Z,60.59
2022-09-28T03:16:35.162Z,60.46
2022-09-28T03:19:32.526Z,60.08
2022-09-28T03:22:25.853Z,59.68
2022-09-28T03:25:17.874Z,59.65
2022-09-28T03:28:12.736Z,57.41
2022-09-28T03:31:04.876Z,57.22
2022-09-28T03:33:56.963Z,58.83
2022-09-28T03:36:49.003Z,63.48
2022-09-28T03:39:40.971Z,65.50
2022-09-28T03:42:33.039Z,64.11
2022-09-28T03:45:25.155Z,63.71
2022-09-28T03:48:20.556Z,62.76
2022-09-28T03:51:15.664Z,62.46
2022-09-28T03:54:08.042Z,61.84
2022-09-28T03:57:00.138Z,61.20
2022-09-28T03:59:52.252Z,60.53
2022-09-28T04:02:46.530Z,60.37
2022-09-28T04:05:28.349Z,60.15
2022-09-28T04:08:20.552Z,57.87
2022-09-28T04:11:12.816Z,57.28
2022-09-28T04:13:57.855Z,59.53
2022-09-28T04:16:52.285Z,64.40
2022-09-28T04:19:47.515Z,66.16
2022-09-28T04:22:51.365Z,65.04
2022-09-28T04:25:46.083Z,63.97
2022-09-28T04:28:55.394Z,63.95
2022-09-28T04:31:49.759Z,63.64
2022-09-28T04:34:29.808Z,63.04
2022-09-28T04:37:23.941Z,62.58
2022-09-28T04:40:16.194Z,62.38
2022-09-28T04:43:09.026Z,61.80
2022-09-28T04:46:02.869Z,60.97
2022-09-28T04:48:54.871Z,61.25
2022-09-28T04:52:05.294Z,60.70
2022-09-28T04:54:57.254Z,59.89
2022-09-28T04:57:49.495Z,57.31
2022-09-28T05:00:41.607Z,56.63
2022-09-28T05:03:39.833Z,58.28
2022-09-28T05:06:40.561Z,59.81
2022-09-28T05:09:37.685Z,64.30
2022-09-28T05:12:30.513Z,66.92
2022-09-28T05:15:22.505Z,65.90
2022-09-28T05:18:14.449Z,64.26
2022-09-28T05:21:16.490Z,62.86
2022-09-28T05:24:08.870Z,61.68
2022-09-28T05:27:00.948Z,61.20
2022-09-28T05:29:53.056Z,60.46
2022-09-28T05:32:44.254Z,58.02
2022-09-28T05:35:36.256Z,56.94
2022-09-28T05:38:28.490Z,58.17
2022-09-28T05:41:12.144Z,62.60
2022-09-28T05:44:04.679Z,65.59
2022-09-28T05:46:54.191Z,64.17
2022-09-28T05:49:36.227Z,62.74
2022-09-28T05:52:28.344Z,61.52
2022-09-28T05:55:20.421Z,60.90
2022-09-28T05:58:12.779Z,58.10
2022-09-28T06:01:04.762Z,57.76
2022-09-28T06:03:56.748Z,60.37
2022-09-28T06:06:41.278Z,64.38
2022-09-28T06:09:33.322Z,65.67
2022-09-28T06:12:25.798Z,63.10
2022-09-28T06:15:18.473Z,61.53
2022-09-28T06:18:14.231Z,58.60
2022-09-28T06:21:08.334Z,57.48
2022-09-28T06:24:00.286Z,59.60
2022-09-28T06:26:52.327Z,63.36
2022-09-28T06:29:44.300Z,65.08
2022-09-28T06:32:36.354Z,62.71
2022-09-28T06:35:30.376Z,61.51
2022-09-28T06:38:22.340Z,60.55
2022-09-28T06:41:14.841Z,58.28
2022-09-28T06:43:57.137Z,57.77
2022-09-28T06:46:47.267Z,59.68
2022-09-28T06:49:41.967Z,61.57
2022-09-28T06:52:39.619Z,64.91
2022-09-28T06:55:31.766Z,65.56
2022-09-28T06:58:24.193Z,63.34
2022-09-28T07:01:16.257Z,60.67
2022-09-28T07:04:08.361Z,56.52
2022-09-28T07:06:59.185Z,55.82
2022-09-28T07:10:13.007Z,57.80
2022-09-28T07:13:10.494Z,59.10
2022-09-28T07:15:57.047Z,63.03
2022-09-28T07:18:42.328Z,65.18
2022-09-28T07:21:34.775Z,63.26
2022-09-28T07:24:19.957Z,60.94
2022-09-28T07:27:23.433Z,56.84
2022-09-28T07:30:09.313Z,55.81
2022-09-28T07:32:59.353Z,56.75
2022-09-28T07:35:55.742Z,59.20
2022-09-28T07:38:47.694Z,60.04
2022-09-28T07:41:39.976Z,60.54
2022-09-28T07:44:32.167Z,63.12
2022-09-28T07:47:30.814Z,65.51
2022-09-28T07:50:34.843Z,62.13
2022-09-28T07:53:36.065Z,57.27
2022-09-28T07:56:28.087Z,56.39
2022-09-28T07:59:23.035Z,57.46
2022-09-28T08:02:20.344Z,58.67
2022-09-28T08:05:12.546Z,59.78
2022-09-28T08:08:06.971Z,61.16
2022-09-28T08:10:53.708Z,61.66
2022-09-28T08:13:48.882Z,61.88
2022-09-28T08:16:40.920Z,61.17
2022-09-28T08:19:51.227Z,61.54
2022-09-28T08:22:43.177Z,61.01
2022-09-28T08:25:38.371Z,62.35
2022-09-28T08:28:30.462Z,65.56
2022-09-28T08:31:07.816Z,62.23
2022-09-28T08:34:14.878Z,57.66
2022-09-28T08:37:22.083Z,55.69
2022-09-28T08:40:29.046Z,56.46
2022-09-28T08:43:43.759Z,57.41
2022-09-28T08:46:43.466Z,57.86
2022-09-28T08:49:44.287Z,59.17
2022-09-28T08:52:44.128Z,59.50
2022-09-28T08:55:45.438Z,59.59
2022-09-28T08:58:42.574Z,59.33
2022-09-28T09:01:41.385Z,60.94
2022-09-28T09:04:35.140Z,60.13
2022-09-28T09:07:49.327Z,61.48
2022-09-28T09:10:51.277Z,62.09
2022-09-28T09:14:01.939Z,65.49
2022-09-28T09:17:03.258Z,63.66
2022-09-28T09:20:07.300Z,56.75
2022-09-28T09:23:05.756Z,51.73
2022-09-28T09:25:54.912Z,53.20
2022-09-28T09:29:06.981Z,53.91
2022-09-28T09:32:17.781Z,54.04
2022-09-28T09:35:31.508Z,53.97
2022-09-28T09:38:39.808Z,55.04
2022-09-28T09:41:43.647Z,54.24
2022-09-28T09:44:53.334Z,54.63
2022-09-28T09:48:01.145Z,54.89
2022-09-28T09:50:57.417Z,54.97
2022-09-28T09:53:51.006Z,55.38
2022-09-28T09:56:49.106Z,56.02
2022-09-28T09:59:45.948Z,55.37
2022-09-28T10:02:51.990Z,54.89
2022-09-28T10:05:49.489Z,54.72
2022-09-28T10:08:47.207Z,53.67
2022-09-28T10:11:44.118Z,54.65
2022-09-28T10:14:36.583Z,54.90
2022-09-28T10:17:28.596Z,54.97
2022-09-28T10:20:38.971Z,54.78
2022-09-28T10:23:37.226Z,54.29
2022-09-28T10:26:35.534Z,55.36
2022-09-28T10:29:35.973Z,55.79
2022-09-28T10:32:37.716Z,55.03
2022-09-28T10:35:41.811Z,55.41
2022-09-28T10:38:34.807Z,55.00
2022-09-28T10:41:33.317Z,55.58
2022-09-28T10:44:22.455Z,54.75
2022-09-28T10:47:26.164Z,55.00
2022-09-28T10:50:25.507Z,54.84
2022-09-28T10:53:23.571Z,53.58
2022-09-28T10:56:32.904Z,52.94
2022-09-28T10:59:40.270Z,53.87
2022-09-28T11:02:35.941Z,53.15
2022-09-28T11:05:30.056Z,53.62
2022-09-28T11:08:26.495Z,53.49
2022-09-28T11:11:20.535Z,52.19
2022-09-28T11:14:26.989Z,51.34
2022-09-28T11:17:26.476Z,51.74
2022-09-28T11:20:35.590Z,51.81
2022-09-28T11:23:32.224Z,51.27
2022-09-28T11:26:25.344Z,50.32
2022-09-28T11:29:36.000Z,49.57
2022-09-28T11:32:45.689Z,49.64
2022-09-28T11:36:06.543Z,49.57
2022-09-28T11:39:08.804Z,49.34
2022-09-28T11:42:25.053Z,48.73
2022-09-28T11:45:33.846Z,48.50
2022-09-28T11:48:31.564Z,48.91
2022-09-28T11:51:27.622Z,49.03
2022-09-28T11:54:28.993Z,48.62
2022-09-28T11:57:28.919Z,48.62
2022-09-28T12:00:23.354Z,48.38
2022-09-28T12:03:02.573Z,49.03
2022-09-28T12:06:01.262Z,48.82
2022-09-28T12:08:53.777Z,49.01
2022-09-28T12:11:45.213Z,48.85
2022-09-28T12:14:42.426Z,49.39
2022-09-28T12:17:23.433Z,48.67
2022-09-28T12:20:21.786Z,48.69
2022-09-28T12:23:03.789Z,47.62
2022-09-28T12:26:00.247Z,48.39
2022-09-28T12:28:56.756Z,47.52
2022-09-28T12:31:42.248Z,47.26
2022-09-28T12:34:34.598Z,47.95
2022-09-28T12:37:54.501Z,47.58
2022-09-28T12:40:56.407Z,47.87
2022-09-28T12:43:54.590Z,48.40
2022-09-28T12:46:57.484Z,48.57
2022-09-28T12:52:47.167Z,49.42
2022-09-28T12:56:01.275Z,49.46
2022-09-28T12:59:06.793Z,49.00
2022-09-28T13:02:20.542Z,48.75
2022-09-28T13:05:38.847Z,49.27
2022-09-28T13:08:41.017Z,49.37
2022-09-28T13:11:41.658Z,49.46
2022-09-28T13:15:09.934Z,49.74
2022-09-28T13:18:09.431Z,49.55
2022-09-28T13:21:24.064Z,49.47
2022-09-28T13:24:14.395Z,49.72
2022-09-28T13:27:17.322Z,49.91
2022-09-28T13:29:55.687Z,49.10
2022-09-28T13:32:51.732Z,49.30
2022-09-28T13:35:46.046Z,49.28
2022-09-28T13:38:53.025Z,49.39
2022-09-28T13:41:50.753Z,49.18
2022-09-28T13:45:03.872Z,49.02
2022-09-28T13:48:12.636Z,49.73
2022-09-28T13:51:17.081Z,49.44
2022-09-28T13:54:26.082Z,49.34
2022-09-28T13:57:26.105Z,48.47
2022-09-28T14:00:24.754Z,49.48
2022-09-28T14:03:28.844Z,49.18
2022-09-28T14:06:29.786Z,49.08
2022-09-28T14:09:43.775Z,48.43
2022-09-28T14:12:51.613Z,49.17
2022-09-28T14:15:48.105Z,48.93
2022-09-28T14:18:33.603Z,48.39
2022-09-28T14:21:36.239Z,47.83
2022-09-28T14:24:46.061Z,47.59
2022-09-28T14:28:05.009Z,47.30
2022-09-28T14:30:59.768Z,47.65
2022-09-28T14:34:00.135Z,47.37
2022-09-28T14:37:06.957Z,47.87
2022-09-28T14:40:01.548Z,48.50
2022-09-28T14:43:25.412Z,48.77
2022-09-28T14:46:40.569Z,48.78
2022-09-28T14:50:00.814Z,49.14
2022-09-28T14:52:48.087Z,48.91
2022-09-28T14:55:50.414Z,49.12
2022-09-28T14:58:33.712Z,49.44
2022-09-28T15:01:21.325Z,49.16
2022-09-28T15:04:15.878Z,49.31
2022-09-28T15:07:07.929Z,49.20
2022-09-28T15:10:02.775Z,49.95
2022-09-28T15:12:56.123Z,50.22
2022-09-28T15:15:42.373Z,50.55
2022-09-28T15:18:59.262Z,50.48
2022-09-28T15:21:52.474Z,50.53
2022-09-28T15:24:59.952Z,50.88
2022-09-28T15:27:56.529Z,50.46
2022-09-28T15:30:49.226Z,50.75
2022-09-28T15:34:01.588Z,51.18
2022-09-28T15:36:56.494Z,51.50
2022-09-28T15:39:48.766Z,51.81
2022-09-28T15:42:39.307Z,52.22
2022-09-28T15:45:36.758Z,52.44
2022-09-28T15:48:32.478Z,52.78
2022-09-28T15:51:15.920Z,53.30
2022-09-28T15:54:19.725Z,53.85
2022-09-28T15:57:33.400Z,54.24
2022-09-28T16:00:29.585Z,54.88
2022-09-28T16:03:20.271Z,55.62
2022-09-28T16:06:13.780Z,55.84
2022-09-28T16:08:49.541Z,56.45
2022-09-28T16:11:40.735Z,56.57
2022-09-28T16:14:31.489Z,56.99
2022-09-28T16:17:20.002Z,56.77
2022-09-28T16:19:54.582Z,57.87
2022-09-28T16:22:28.887Z,58.26
2022-09-28T16:25:03.143Z,59.02
2022-09-28T16:27:43.641Z,59.51
2022-09-28T16:30:36.489Z,59.74
2022-09-28T16:33:39.199Z,59.80
2022-09-28T16:36:27.501Z,60.35
2022-09-28T16:39:20.713Z,60.61
2022-09-28T16:42:14.556Z,61.07
2022-09-28T16:44:46.950Z,61.50
2022-09-28T16:47:40.589Z,65.94
2022-09-28T16:50:32.985Z,67.78
2022-09-28T16:53:43.205Z,64.43
2022-09-28T16:56:36.846Z,58.00
2022-09-28T16:59:13.891Z,55.00
2022-09-28T17:02:46.316Z,54.73
2022-09-28T17:05:31.759Z,54.75
2022-09-28T17:08:25.818Z,55.49
2022-09-28T17:11:24.274Z,55.94
2022-09-28T17:14:17.097Z,56.44
2022-09-28T17:17:12.665Z,56.82
2022-09-28T17:20:17.023Z,57.03
2022-09-28T17:23:09.359Z,57.12
2022-09-28T17:26:02.775Z,57.78
2022-09-28T17:28:46.011Z,58.09
2022-09-28T17:31:38.196Z,58.26
2022-09-28T17:34:30.369Z,58.53
2022-09-28T17:37:22.484Z,59.04
2022-09-28T17:40:22.146Z,59.23
2022-09-28T17:43:14.639Z,59.50
2022-09-28T17:46:26.249Z,59.85
2022-09-28T17:49:19.298Z,60.12
2022-09-28T17:52:11.266Z,60.47
2022-09-28T17:55:03.621Z,60.69
2022-09-28T17:57:48.784Z,61.01
2022-09-28T18:00:41.060Z,61.05
2022-09-28T18:03:33.324Z,61.26
2022-09-28T18:06:25.893Z,61.33
2022-09-28T18:09:25.129Z,61.58
2022-09-28T18:12:18.354Z,66.15
2022-09-28T18:15:12.957Z,66.84
2022-09-28T18:18:09.531Z,64.02
2022-09-28T18:21:02.876Z,58.37
2022-09-28T18:23:45.465Z,55.38
2022-09-28T18:26:28.331Z,55.37
2022-09-28T18:29:21.328Z,56.03
2022-09-28T18:32:14.277Z,56.75
2022-09-28T18:35:10.264Z,57.71
2022-09-28T18:38:05.406Z,58.41
2022-09-28T18:40:58.180Z,59.08
2022-09-28T18:43:45.057Z,60.21
2022-09-28T18:46:28.329Z,60.77
2022-09-28T18:49:21.238Z,65.14
2022-09-28T18:52:13.950Z,66.96
2022-09-28T18:55:07.894Z,63.92
2022-09-28T18:58:00.512Z,59.03
2022-09-28T19:00:53.828Z,55.91
2022-09-28T19:03:53.131Z,55.94
2022-09-28T19:06:47.606Z,56.97
2022-09-28T19:09:43.982Z,58.03
2022-09-28T19:12:36.394Z,58.75
2022-09-28T19:15:29.555Z,59.47
2022-09-28T19:18:22.441Z,60.25
2022-09-28T19:21:16.757Z,64.88
2022-09-28T19:24:07.824Z,66.93
2022-09-28T19:26:54.507Z,63.76
2022-09-28T19:29:46.512Z,61.20
2022-09-28T19:32:39.151Z,56.57
2022-09-28T19:35:31.243Z,54.74
2022-09-28T19:38:23.339Z,55.18
2022-09-28T19:41:39.406Z,56.22
2022-09-28T19:44:36.487Z,57.22
2022-09-28T19:47:28.819Z,58.51
2022-09-28T19:50:20.901Z,59.72
2022-09-28T19:53:12.868Z,64.64
2022-09-28T19:56:06.191Z,67.45
2022-09-28T19:58:58.317Z,64.35
2022-09-28T20:01:52.079Z,61.78
2022-09-28T20:04:44.149Z,57.81
2022-09-28T20:07:36.839Z,55.82
2022-09-28T20:10:28.846Z,56.43
2022-09-28T20:13:21.503Z,57.46
2022-09-28T20:16:15.536Z,58.47
2022-09-28T20:19:07.885Z,59.50
2022-09-28T20:22:03.287Z,64.66
2022-09-28T20:24:55.518Z,66.65
2022-09-28T20:27:47.507Z,63.50
2022-09-28T20:30:39.783Z,61.35
2022-09-28T20:33:33.768Z,57.03
2022-09-28T20:36:26.902Z,55.15
2022-09-28T20:39:19.099Z,55.75
2022-09-28T20:42:11.758Z,57.07
2022-09-28T20:45:03.941Z,58.36
2022-09-28T20:47:46.887Z,59.60
2022-09-28T20:50:38.939Z,60.25
2022-09-28T20:53:31.356Z,65.06
2022-09-28T20:56:25.003Z,66.73
2022-09-28T20:59:17.325Z,63.86
2022-09-28T21:01:59.367Z,60.88
2022-09-28T21:04:51.424Z,56.64
2022-09-28T21:07:43.505Z,54.84
2022-09-28T21:10:35.555Z,55.38
2022-09-28T21:13:28.528Z,56.58
2022-09-28T21:16:20.784Z,57.81
2022-09-28T21:19:12.753Z,58.53
2022-09-28T21:22:04.833Z,59.58
2022-09-28T21:24:56.568Z,60.50
2022-09-28T21:27:48.754Z,65.19
2022-09-28T21:30:41.583Z,66.53
2022-09-28T21:33:33.690Z,63.34
2022-09-28T21:36:26.348Z,60.56
2022-09-28T21:39:10.814Z,56.32
2022-09-28T21:42:03.866Z,54.58
2022-09-28T21:44:59.373Z,55.24
2022-09-28T21:47:53.958Z,56.40
2022-09-28T21:50:44.692Z,57.62
2022-09-28T21:53:38.588Z,58.83
2022-09-28T21:56:30.822Z,59.65
2022-09-28T21:59:22.893Z,60.38
2022-09-28T22:02:14.961Z,65.40
2022-09-28T22:05:08.472Z,66.82
2022-09-28T22:08:01.169Z,63.34
2022-09-28T22:11:01.946Z,58.55
2022-09-28T22:13:56.075Z,55.70
2022-09-28T22:16:48.059Z,56.04
2022-09-28T22:19:41.715Z,56.89
2022-09-28T22:22:33.763Z,57.57
2022-09-28T22:25:09.553Z,58.71
2022-09-28T22:27:54.418Z,59.56
2022-09-28T22:30:46.835Z,60.00
2022-09-28T22:33:39.733Z,60.60
2022-09-28T22:36:32.606Z,65.10
2022-09-28T22:39:24.567Z,66.03
2022-09-28T22:42:17.515Z,63.21
2022-09-28T22:45:10.358Z,60.76
2022-09-28T22:48:03.497Z,56.66
2022-09-28T22:50:55.499Z,54.75
2022-09-28T22:53:48.302Z,55.12
2022-09-28T22:56:40.263Z,56.08
2022-09-28T22:59:33.041Z,57.08
2022-09-28T23:02:14.905Z,57.80
2022-09-28T23:05:08.165Z,58.61
2022-09-28T23:08:00.219Z,59.22
2022-09-28T23:10:52.543Z,59.99
2022-09-28T23:13:26.681Z,60.89
2022-09-28T23:16:11.613Z,65.26
2022-09-28T23:19:03.762Z,67.34
2022-09-28T23:21:58.629Z,63.37
2022-09-28T23:24:50.616Z,58.56
2022-09-28T23:27:47.707Z,56.42
2022-09-28T23:30:42.230Z,56.36
2022-09-28T23:33:34.455Z,56.94
2022-09-28T23:36:26.712Z,57.82
2022-09-28T23:39:18.814Z,58.42
2022-09-28T23:42:10.921Z,59.21
2022-09-28T23:45:02.959Z,59.80
2022-09-28T23:47:54.959Z,60.31
2022-09-28T23:50:47.678Z,63.21
2022-09-28T23:53:39.769Z,66.22
2022-09-28T23:56:31.761Z,64.72
2022-09-28T23:59:23.854Z,62.82
